ETEB 240856Z AUTO 01003KT 9999 FEW047 20/15 A3019 RMK AO2 SLP219 T02010149 58000 $ EDMA 240920Z VRB02KT 9999 SCT025 22/16 Q1021 ETIK 240856Z AUTO 00000KT 9999 OVC055 20/14 A3019 RMK AO2 SLP219 T01990140 58002 EDDT 240920Z 07006KT 030V150 CAVOK 27/13 Q1024 NOSIG LSZB 240920Z VRB04KT 9999 SCT018 21/15 Q1022 NOSIG LIPB 240850Z 00000KT 9999 FEW050 24/16 Q1022 RMK MON LIB EDVE 240920Z 10008KT 020V150 CAVOK 25/12 Q1024 EDDW 240920Z 10005KT 040V160 CAVOK 24/13 Q1024 NOSIG LFMD 240930Z AUTO 15006KT 110V180 CAVOK 29/20 Q1018 NOSIG EDLW 240920Z 07003KT 350V130 CAVOK 26/12 Q1022 EDDC 240920Z 06008KT 010V130 9999 FEW040 25/14 Q1023 NOSIG EDDL 240920Z 11004KT 020V150 CAVOK 25/10 Q1022 NOSIG EDDE 240920Z 04006KT 350V090 CAVOK 23/12 Q1024 NOSIG LIRQ 240920Z 10013KT 9999 FEW080 25/18 Q1019 EDDF 240920Z 05008KT 020V080 CAVOK 25/12 Q1021 NOSIG EDNY 240920Z 21003KT 6000 OVC013 18/15 Q1022 ETHF 240920Z 08004KT 9999 FEW330 24/12 Q1023 BLU+ LIMJ 240920Z 05008KT 010V080 CAVOK 29/19 Q1019 ETIC 240856Z AUTO 10004KT 9999 CLR 23/17 A3017 RMK AO2 SLP207 T02310169 58002 $ LOWG 240920Z VRB03KT 9999 FEW040 FEW045CB SCT100 OVC200 26/19 Q1022 NOSIG EDDH 240920Z 10007KT CAVOK 25/13 Q1025 NOSIG EDDV 240920Z 09007KT CAVOK 25/12 Q1024 NOSIG EDQM 240920Z 09007KT 060V160 CAVOK 22/15 Q1024 ETIH 240856Z AUTO 00000KT 9999 CLR 22/20 A3019 RMK AO2 SLP212 T02210198 58001 ETSI 240920Z AUTO 02002KT 7000 // ////// 23/15 Q1021 /// LOWI 240920Z 26011KT 9999 FEW060 BKN300 22/15 Q1021 NOSIG EDVK 240920Z 09009KT CAVOK 23/12 Q1023 EDHK 240920Z 07008KT CAVOK 22/17 Q1025 LOWK 240920Z VRB02KT 7000 -SHRA VCTS FEW004 SCT012 FEW050CB BKN070 19/18 Q1024 TEMPO -TSRA FEW004 BKN012 EDDK 240920Z 13004KT 070V200 CAVOK 25/12 Q1022 NOSIG EDDP 240920Z 06008KT 010V100 CAVOK 25/14 Q1023 NOSIG LOWL 240920Z 08007KT 050V140 CAVOK 24/18 Q1021 NOSIG LSZA 240920Z VRB01KT 9999 FEW080 BKN140 23/18 Q1022 NOSIG EDHL 240920Z 06007KT 020V080 CAVOK 23/14 Q1025 LFML 240930Z AUTO 27003KT CAVOK 28/17 Q1019 NOSIG LFMT 240930Z AUTO 14005KT CAVOK 28/18 Q1019 NOSIG EDLN 240920Z 12006KT CAVOK 24/14 Q1021 EDDM 240920Z 13004KT 070V160 9999 FEW022 22/17 Q1021 NOSIG EDDG 240920Z 13008KT 050V170 CAVOK 27/11 Q1022 NOSIG ETSN 240920Z VRB03KT 9999 FEW160 24/16 Q1021 BLU+ ETHN 240920Z 06005KT 9999 BKN048 22/14 Q1022 BLACKBLU LFMN 240930Z 18005KT 9999 FEW040 29/17 Q1019 NOSIG EDDN 240920Z 12006KT 070V150 CAVOK 24/16 Q1022 NOSIG EDMO 240920Z AUTO 24003KT 210V280 9999 // FEW020/// 21/17 Q1022 EDLP 240920Z 12011KT CAVOK 25/10 Q1023 LIPR 240920Z 30011KT 260V320 CAVOK 27/20 Q1019 EDDR 240920Z 09008KT 040V120 CAVOK 24/13 Q1022 NOSIG LOWS 240920Z VRB02KT 9999 FEW050 SCT300 24/17 Q1021 NOSIG LSGS 240920Z VRB02KT 9999 FEW080 23/14 Q1021 EDDS 240920Z VRB02KT 9999 FEW029 BKN049 22/15 Q1021 NOSIG LFTH 240930Z AUTO 13005KT 070V190 CAVOK 31/16 Q1019 NOSIG LIVT 240855Z 05005G15KT 9999 FEW045 30/21 Q1018 RMK SCT QUK 2 QUL 1 NE VIS MAR 20 KM VIS MIN 9999 LIMF 240920Z VRB02KT CAVOK 25/17 Q1022 LIPZ 240920Z 04008KT 9999 FEW050 28/19 Q1018 NOSIG LIPX 240920Z 25006KT 9999 FEW090 27/18 Q1020 EDXW 240920Z 09008KT CAVOK 22/18 Q1025 LOWW 240920Z VRB05KT CAVOK 26/18 Q1022 NOSIG LSZH 240920Z VRB02KT 7000 FEW009 BKN022 19/15 Q1022 NOSIG

METAR Messwerte

Klicken Sie auf einen Ort, um die 36h-Historie abzurufen

Ort
m ü. NN
Zeit Temperatur Taupunkt Rel.
Luftfeuchte
Luftdruck:
Altimeter
NN
Station
Wind in Beaufort
(Knoten)
Sichtweite
(Meter)
Wolken
(Meter über Grund)
Wettererscheinung
Ansbach
467
Sa 24.08. 10:56201573 %1022
1021
967
N 2 (3)>= 10000Leicht bewölkt (1400) 
Augsburg
463
Sa 24.08. 11:20221669 %1021
1020
966
Uml 1 (2)>= 10000Wolkig (760) 
Bad Windsheim / Illesheim
325
Sa 24.08. 10:56201468 %1022
1021
983
Windstill>= 10000Bedeckt (1700) 
Berlin-Tegel
37
Sa 24.08. 11:20271342 %1024
1024
1020
ONO 2 (6)
NNO - SSO
>= 10000Nicht signifikant 
Bern/Belp
505
Sa 24.08. 11:20211569 %1022
1021
962
Uml 2 (4)>= 10000Wolkig (550) 
Bozen
241
Sa 24.08. 10:50241661 %1022
1021
993
Windstill>= 10000Leicht bewölkt (1500) 
Braunschweig
88
Sa 24.08. 11:20251244 %1024
1024
1013
O 3 (8)
NNO - SSO
>= 10000Nicht signifikant 
Bremen
5
Sa 24.08. 11:20241350 %1024
1024
1023
O 2 (5)
NO - SSO
>= 10000Nicht signifikant 
Cannes
9
Sa 24.08. 11:30292058 %1018
1018
1017
SSO 2 (6)
OSO - S
>= 10000Nicht signifikant 
Dortmund/Wickede
127
Sa 24.08. 11:20261242 %1022
1021
1007
ONO 2 (3)
N - SO
>= 10000Nicht signifikant 
Dresden-Klotzsche
226
Sa 24.08. 11:20251450 %1023
1022
996
ONO 3 (8)
N - SO
>= 10000Leicht bewölkt (1200) 
Düsseldorf
44
Sa 24.08. 11:20251039 %1022
1022
1017
OSO 2 (4)
NNO - SSO
>= 10000Nicht signifikant 
Erfurt-Bindersleben
323
Sa 24.08. 11:20231250 %1024
1023
985
NO 2 (6)
N - O
>= 10000Nicht signifikant 
Florenz
38
Sa 24.08. 11:20251865 %1019
1019
1014
O 4 (13)>= 10000Leicht bewölkt (2400) 
Frankfurt
113
Sa 24.08. 11:20251244 %1021
1021
1007
NO 3 (8)
NNO - O
>= 10000Nicht signifikant 
Friedrichshafen
424
Sa 24.08. 11:20181583 %1022
1022
972
SSW 2 (3)6000Bedeckt (400) 
Fritzlar
181
Sa 24.08. 11:20241247 %1023
1022
1001
O 2 (4)>= 10000Leicht bewölkt (10000) 
Genua
3
Sa 24.08. 11:20291955 %1019
1019
1019
NO 3 (8)
N - O
>= 10000Nicht signifikant 
Grafenwöhr
415
Sa 24.08. 10:56231769 %1022
1021
973
O 2 (4)>= 10000  
Graz-Thalerhof
347
Sa 24.08. 11:20261965 %1022
1021
981
Uml 2 (3)>= 10000Bedeckt (6100)
Wolkig (3000)
Leicht bewölkt Cb (1400)
Leicht bewölkt (1200)
 
Hamburg-Fuhlsbüttel
16
Sa 24.08. 11:20251347 %1025
1025
1023
O 3 (7)>= 10000Nicht signifikant 
Hannover
54
Sa 24.08. 11:20251244 %1024
1024
1017
O 3 (7)>= 10000Nicht signifikant 
Hof
568
Sa 24.08. 11:20221565 %1024
1022
957
O 3 (7)
ONO - SSO
>= 10000Nicht signifikant 
Hohenfels
442
Sa 24.08. 10:56222088 %1022
1021
970
Windstill>= 10000  
Ingolstadt
370
Sa 24.08. 11:20231561 %1021
1020
977
NNO 1 (2)7000  
Innsbruck
581
Sa 24.08. 11:20221565 %1021
1019
953
W 4 (11)>= 10000Stark bewölkt (9100)
Leicht bewölkt (1800)
 
Kassel/Calden
285
Sa 24.08. 11:20231250 %1023
1022
989
O 3 (9)>= 10000Nicht signifikant 
Kiel
31
Sa 24.08. 11:20221773 %1025
1025
1021
ONO 3 (8)>= 10000Nicht signifikant 
Klagenfurt
441
Sa 24.08. 11:20191894 %1024
1023
972
Uml 1 (2)7000Stark bewölkt (2100)
Leicht bewölkt Cb (1500)
Wolkig (370)
Leicht bewölkt (120)
Regen-Schauer (schwach)
Bald möglich: Gewitter mit Regen (schwach)
Köln/Bonn
99
Sa 24.08. 11:20251244 %1022
1022
1010
SO 2 (4)
ONO - SSW
>= 10000Nicht signifikant 
Leipzig-Schkeuditz
149
Sa 24.08. 11:20251450 %1023
1022
1005
ONO 3 (8)
N - O
>= 10000Nicht signifikant 
Linz/Hörsching
313
Sa 24.08. 11:20241869 %1021
1020
984
O 3 (7)
NO - SO
>= 10000Nicht signifikant 
Lugano
276
Sa 24.08. 11:20231873 %1022
1021
989
Uml 1 (1)>= 10000Stark bewölkt (4300)
Leicht bewölkt (2400)
 
Lübeck-Blankensee
16
Sa 24.08. 11:20231457 %1025
1025
1023
ONO 3 (7)
NNO - O
>= 10000Nicht signifikant 
Marseille/Marignane
36
Sa 24.08. 11:30281751 %1019
1019
1015
W 2 (3)>= 10000Nicht signifikant 
Montpellier
6
Sa 24.08. 11:30281855 %1019
1019
1018
SO 2 (5)>= 10000Nicht signifikant 
Mönchengladbach
38
Sa 24.08. 11:20241454 %1021
1021
1016
OSO 2 (6)>= 10000Nicht signifikant 
München
447
Sa 24.08. 11:20221773 %1021
1020
968
SO 2 (4)
ONO - SSO
>= 10000Leicht bewölkt (670) 
Münster/Osnabrück
52
Sa 24.08. 11:20271137 %1022
1022
1016
SO 3 (8)
NO - S
>= 10000Nicht signifikant 
Neuburg/Donau
387
Sa 24.08. 11:20241661 %1021
1020
975
Uml 2 (3)>= 10000Leicht bewölkt (4900) 
Niederstetten
473
Sa 24.08. 11:20221460 %1022
1021
966
ONO 2 (5)>= 10000Stark bewölkt (1500) 
Nizza
10
Sa 24.08. 11:30291748 %1019
1019
1018
S 2 (5)>= 10000Leicht bewölkt (1200) 
Nürnberg
312
Sa 24.08. 11:20241661 %1022
1021
985
OSO 2 (6)
ONO - SSO
>= 10000Nicht signifikant 
Oberpfaffenhofen
600
Sa 24.08. 11:20211778 %1022
1021
951
WSW 2 (3)
SSW - W
>= 10000Leicht bewölkt (610) 
Paderborn/Lippstadt
213
Sa 24.08. 11:20251039 %1023
1022
997
OSO 4 (11)>= 10000Nicht signifikant 
Rimini
13
Sa 24.08. 11:20272066 %1019
1019
1017
WNW 4 (11)
W - NW
>= 10000Nicht signifikant 
Saarbrücken/Ensheim
320
Sa 24.08. 11:20241350 %1022
1021
984
O 3 (8)
NO - OSO
>= 10000Nicht signifikant 
Salzburg
450
Sa 24.08. 11:20241765 %1021
1019
968
Uml 1 (2)>= 10000Wolkig (9100)
Leicht bewölkt (1500)
 
Sion
481
Sa 24.08. 11:20231457 %1021
1020
964
Uml 1 (2)>= 10000Leicht bewölkt (2400) 
Stuttgart
419
Sa 24.08. 11:20221565 %1021
1020
971
Uml 1 (2)>= 10000Stark bewölkt (1500)
Leicht bewölkt (880)
 
Toulon
4
Sa 24.08. 11:30311640 %1019
1019
1019
SO 2 (5)
ONO - S
>= 10000Nicht signifikant 
Triest
20
Sa 24.08. 10:55302159 %1018
1018
1016
NO 2 (5) - 4 (15)>= 10000Leicht bewölkt (1400) 
Turin
287
Sa 24.08. 11:20251761 %1022
1021
988
Uml 1 (2)>= 10000Nicht signifikant 
Venedig
6
Sa 24.08. 11:20281958 %1018
1018
1017
NO 3 (8)>= 10000Leicht bewölkt (1500) 
Verona/Villafranca
68
Sa 24.08. 11:20271858 %1020
1020
1012
WSW 2 (6)>= 10000Leicht bewölkt (2700) 
Westerland/Sylt
20
Sa 24.08. 11:20221878 %1025
1025
1023
O 3 (8)>= 10000Nicht signifikant 
Wien/Schwechat
190
Sa 24.08. 11:20261861 %1022
1021
999
Uml 2 (5)>= 10000Nicht signifikant 
Zürich-Kloten
432
Sa 24.08. 11:20191578 %1022
1021
971
Uml 1 (2)7000Stark bewölkt (670)
Leicht bewölkt (270)
 

Altimeter: Einstellung am Altimeter (Höhenmesser), die Höhe 0 muss auf diesen Luftdruckwert zeigen, damit das Gerät die Stationshöhe richtig anzeigt.

NN: Luftdruck reduziert auf "Normal Null", auf Meereshöhe, dieser von der Temperatur abhängige Wert wird bisweilen unkorrekt einfach als "Luftdruck" bezeichnet. Eigentlich nur eine fiktive Größe, die es erlaubt, Stationen auf unterschiedlichen Höhen miteinander zu vergleichen.

Station: Realer Luftdruck an der Station.